sensor_id;sensor_type;location;lat;lon;timestamp;P1;durP1;ratioP1;P2;durP2;ratioP2
17985;SDS011;9118;48.122;11.546;2023-02-23T00:01:12;21.27;;;14.07;;
17985;SDS011;9118;48.122;11.546;2023-02-23T00:03:41;22.90;;;14.20;;
17985;SDS011;9118;48.122;11.546;2023-02-23T00:06:08;22.80;;;14.87;;
17985;SDS011;9118;48.122;11.546;2023-02-23T00:08:36;22.77;;;14.90;;
17985;SDS011;9118;48.122;11.546;2023-02-23T00:11:04;23.00;;;15.10;;
17985;SDS011;9118;48.122;11.546;2023-02-23T00:13:34;21.13;;;14.70;;
17985;SDS011;9118;48.122;11.546;2023-02-23T00:16:03;23.37;;;14.90;;
17985;SDS011;9118;48.122;11.546;2023-02-23T00:18:31;24.07;;;15.60;;
17985;SDS011;9118;48.122;11.546;2023-02-23T00:21:09;22.87;;;15.03;;
17985;SDS011;9118;48.122;11.546;2023-02-23T00:23:39;22.63;;;15.23;;
17985;SDS011;9118;48.122;11.546;2023-02-23T00:26:07;23.73;;;15.03;;
17985;SDS011;9118;48.122;11.546;2023-02-23T00:28:35;23.10;;;15.17;;
17985;SDS011;9118;48.122;11.546;2023-02-23T00:31:02;22.60;;;15.23;;
17985;SDS011;9118;48.122;11.546;2023-02-23T00:33:29;22.97;;;14.83;;
17985;SDS011;9118;48.122;11.546;2023-02-23T00:36:02;23.10;;;15.43;;
17985;SDS011;9118;48.122;11.546;2023-02-23T00:38:30;22.27;;;15.23;;
17985;SDS011;9118;48.122;11.546;2023-02-23T00:41:02;22.80;;;15.13;;
17985;SDS011;9118;48.122;11.546;2023-02-23T00:43:32;25.30;;;15.87;;
17985;SDS011;9118;48.122;11.546;2023-02-23T00:46:02;20.77;;;14.40;;
17985;SDS011;9118;48.122;11.546;2023-02-23T00:48:33;23.20;;;15.53;;
17985;SDS011;9118;48.122;11.546;2023-02-23T00:51:01;23.53;;;15.33;;
17985;SDS011;9118;48.122;11.546;2023-02-23T00:53:29;24.83;;;16.53;;
17985;SDS011;9118;48.122;11.546;2023-02-23T00:55:56;25.60;;;16.20;;
17985;SDS011;9118;48.122;11.546;2023-02-23T00:58:24;22.80;;;15.07;;
17985;SDS011;9118;48.122;11.546;2023-02-23T01:00:53;23.90;;;16.20;;
17985;SDS011;9118;48.122;11.546;2023-02-23T01:03:20;21.43;;;15.33;;
17985;SDS011;9118;48.122;11.546;2023-02-23T01:05:47;26.13;;;15.83;;
17985;SDS011;9118;48.122;11.546;2023-02-23T01:08:15;23.30;;;15.27;;
17985;SDS011;9118;48.122;11.546;2023-02-23T01:10:43;23.80;;;15.93;;
17985;SDS011;9118;48.122;11.546;2023-02-23T01:13:16;22.77;;;15.77;;
17985;SDS011;9118;48.122;11.546;2023-02-23T01:15:44;25.17;;;15.57;;
17985;SDS011;9118;48.122;11.546;2023-02-23T01:18:14;24.43;;;16.03;;
17985;SDS011;9118;48.122;11.546;2023-02-23T01:20:41;23.63;;;15.73;;
17985;SDS011;9118;48.122;11.546;2023-02-23T01:23:09;30.33;;;17.40;;
17985;SDS011;9118;48.122;11.546;2023-02-23T01:25:38;25.37;;;15.90;;
17985;SDS011;9118;48.122;11.546;2023-02-23T01:28:06;25.40;;;16.50;;
17985;SDS011;9118;48.122;11.546;2023-02-23T01:30:33;26.77;;;16.63;;
17985;SDS011;9118;48.122;11.546;2023-02-23T01:33:01;25.57;;;15.93;;
17985;SDS011;9118;48.122;11.546;2023-02-23T01:35:29;22.90;;;15.77;;
17985;SDS011;9118;48.122;11.546;2023-02-23T01:37:57;26.10;;;17.20;;
17985;SDS011;9118;48.122;11.546;2023-02-23T01:40:25;25.50;;;15.10;;
17985;SDS011;9118;48.122;11.546;2023-02-23T01:42:57;28.30;;;16.90;;
17985;SDS011;9118;48.122;11.546;2023-02-23T01:45:29;28.93;;;17.77;;
17985;SDS011;9118;48.122;11.546;2023-02-23T01:48:00;23.60;;;16.03;;
17985;SDS011;9118;48.122;11.546;2023-02-23T01:53:17;30.10;;;16.80;;
17985;SDS011;9118;48.122;11.546;2023-02-23T01:55:46;24.23;;;16.63;;
17985;SDS011;9118;48.122;11.546;2023-02-23T01:58:15;26.03;;;16.53;;
17985;SDS011;9118;48.122;11.546;2023-02-23T02:00:46;25.63;;;16.30;;
17985;SDS011;9118;48.122;11.546;2023-02-23T02:03:18;22.77;;;15.43;;
17985;SDS011;9118;48.122;11.546;2023-02-23T02:05:52;26.33;;;16.87;;
17985;SDS011;9118;48.122;11.546;2023-02-23T02:08:21;26.17;;;17.17;;
17985;SDS011;9118;48.122;11.546;2023-02-23T02:10:50;25.67;;;16.97;;
17985;SDS011;9118;48.122;11.546;2023-02-23T02:13:20;27.00;;;17.97;;
17985;SDS011;9118;48.122;11.546;2023-02-23T02:16:04;25.80;;;17.60;;
17985;SDS011;9118;48.122;11.546;2023-02-23T02:18:51;24.70;;;17.63;;
17985;SDS011;9118;48.122;11.546;2023-02-23T02:27:58;26.10;;;16.67;;
17985;SDS011;9118;48.122;11.546;2023-02-23T02:31:13;25.87;;;16.60;;
17985;SDS011;9118;48.122;11.546;2023-02-23T02:34:12;24.77;;;16.67;;
17985;SDS011;9118;48.122;11.546;2023-02-23T02:37:19;27.73;;;16.90;;
17985;SDS011;9118;48.122;11.546;2023-02-23T02:40:08;29.03;;;17.27;;
17985;SDS011;9118;48.122;11.546;2023-02-23T02:42:53;24.50;;;16.60;;
17985;SDS011;9118;48.122;11.546;2023-02-23T02:45:33;26.07;;;16.73;;
17985;SDS011;9118;48.122;11.546;2023-02-23T02:48:08;30.37;;;18.13;;
17985;SDS011;9118;48.122;11.546;2023-02-23T02:50:42;29.93;;;17.77;;
17985;SDS011;9118;48.122;11.546;2023-02-23T02:53:17;27.57;;;17.90;;
17985;SDS011;9118;48.122;11.546;2023-02-23T02:55:50;27.20;;;17.50;;
17985;SDS011;9118;48.122;11.546;2023-02-23T02:58:23;26.77;;;17.90;;
17985;SDS011;9118;48.122;11.546;2023-02-23T03:00:51;25.60;;;17.03;;
17985;SDS011;9118;48.122;11.546;2023-02-23T03:03:36;29.27;;;18.23;;
17985;SDS011;9118;48.122;11.546;2023-02-23T03:06:23;25.67;;;17.77;;
17985;SDS011;9118;48.122;11.546;2023-02-23T03:09:16;26.13;;;17.40;;
17985;SDS011;9118;48.122;11.546;2023-02-23T03:12:10;29.97;;;18.10;;
17985;SDS011;9118;48.122;11.546;2023-02-23T03:15:08;27.67;;;17.40;;
17985;SDS011;9118;48.122;11.546;2023-02-23T03:18:03;27.13;;;18.07;;
17985;SDS011;9118;48.122;11.546;2023-02-23T03:20:59;25.60;;;17.57;;
17985;SDS011;9118;48.122;11.546;2023-02-23T03:23:52;32.73;;;18.63;;
17985;SDS011;9118;48.122;11.546;2023-02-23T03:26:48;27.67;;;17.60;;
17985;SDS011;9118;48.122;11.546;2023-02-23T03:29:39;28.97;;;18.90;;
17985;SDS011;9118;48.122;11.546;2023-02-23T03:32:28;30.77;;;18.33;;
17985;SDS011;9118;48.122;11.546;2023-02-23T03:35:17;27.60;;;17.87;;
17985;SDS011;9118;48.122;11.546;2023-02-23T03:38:09;31.13;;;19.50;;
17985;SDS011;9118;48.122;11.546;2023-02-23T03:40:56;29.23;;;17.97;;
17985;SDS011;9118;48.122;11.546;2023-02-23T03:43:47;29.03;;;17.97;;
17985;SDS011;9118;48.122;11.546;2023-02-23T03:46:36;28.20;;;18.10;;
17985;SDS011;9118;48.122;11.546;2023-02-23T03:49:22;29.80;;;17.87;;
17985;SDS011;9118;48.122;11.546;2023-02-23T03:52:13;28.50;;;18.20;;
17985;SDS011;9118;48.122;11.546;2023-02-23T03:55:02;28.37;;;18.23;;
17985;SDS011;9118;48.122;11.546;2023-02-23T03:57:51;27.93;;;17.90;;
17985;SDS011;9118;48.122;11.546;2023-02-23T04:00:42;29.10;;;17.43;;
17985;SDS011;9118;48.122;11.546;2023-02-23T04:03:29;29.63;;;18.23;;
17985;SDS011;9118;48.122;11.546;2023-02-23T04:06:16;29.70;;;18.30;;
17985;SDS011;9118;48.122;11.546;2023-02-23T04:09:02;25.97;;;17.53;;
17985;SDS011;9118;48.122;11.546;2023-02-23T04:11:49;28.37;;;18.40;;
17985;SDS011;9118;48.122;11.546;2023-02-23T04:14:40;31.03;;;18.27;;
17985;SDS011;9118;48.122;11.546;2023-02-23T04:17:14;27.10;;;17.63;;
17985;SDS011;9118;48.122;11.546;2023-02-23T04:19:50;28.37;;;18.20;;
17985;SDS011;9118;48.122;11.546;2023-02-23T04:22:17;28.23;;;17.73;;
17985;SDS011;9118;48.122;11.546;2023-02-23T04:24:45;30.83;;;18.10;;
17985;SDS011;9118;48.122;11.546;2023-02-23T04:27:12;29.27;;;17.13;;
17985;SDS011;9118;48.122;11.546;2023-02-23T04:29:39;33.27;;;18.97;;
17985;SDS011;9118;48.122;11.546;2023-02-23T04:32:06;55.67;;;20.97;;
17985;SDS011;9118;48.122;11.546;2023-02-23T04:34:39;40.50;;;19.77;;
17985;SDS011;9118;48.122;11.546;2023-02-23T04:37:06;35.90;;;18.10;;
17985;SDS011;9118;48.122;11.546;2023-02-23T04:39:33;28.83;;;17.43;;
17985;SDS011;9118;48.122;11.546;2023-02-23T04:42:00;30.33;;;17.10;;
17985;SDS011;9118;48.122;11.546;2023-02-23T04:44:27;28.43;;;17.77;;
17985;SDS011;9118;48.122;11.546;2023-02-23T04:46:55;29.73;;;17.50;;
17985;SDS011;9118;48.122;11.546;2023-02-23T04:49:22;24.63;;;16.57;;
17985;SDS011;9118;48.122;11.546;2023-02-23T04:51:51;26.93;;;16.37;;
17985;SDS011;9118;48.122;11.546;2023-02-23T04:54:18;32.83;;;16.33;;
17985;SDS011;9118;48.122;11.546;2023-02-23T04:56:45;28.60;;;16.20;;
17985;SDS011;9118;48.122;11.546;2023-02-23T04:59:12;23.50;;;15.33;;
17985;SDS011;9118;48.122;11.546;2023-02-23T05:01:39;27.73;;;15.57;;
17985;SDS011;9118;48.122;11.546;2023-02-23T05:04:06;21.03;;;14.23;;
17985;SDS011;9118;48.122;11.546;2023-02-23T05:06:33;20.63;;;13.80;;
17985;SDS011;9118;48.122;11.546;2023-02-23T05:09:01;21.30;;;14.07;;
17985;SDS011;9118;48.122;11.546;2023-02-23T05:11:30;24.97;;;15.30;;
17985;SDS011;9118;48.122;11.546;2023-02-23T05:13:57;22.03;;;13.80;;
17985;SDS011;9118;48.122;11.546;2023-02-23T05:16:24;22.43;;;13.93;;
17985;SDS011;9118;48.122;11.546;2023-02-23T05:18:52;19.63;;;13.03;;
17985;SDS011;9118;48.122;11.546;2023-02-23T05:21:19;18.87;;;13.17;;
17985;SDS011;9118;48.122;11.546;2023-02-23T05:23:46;22.03;;;13.33;;
17985;SDS011;9118;48.122;11.546;2023-02-23T05:26:15;22.90;;;14.03;;
17985;SDS011;9118;48.122;11.546;2023-02-23T05:28:42;21.87;;;14.10;;
17985;SDS011;9118;48.122;11.546;2023-02-23T05:31:10;23.83;;;14.37;;
17985;SDS011;9118;48.122;11.546;2023-02-23T05:33:37;24.30;;;13.73;;
17985;SDS011;9118;48.122;11.546;2023-02-23T05:36:07;21.90;;;13.90;;
17985;SDS011;9118;48.122;11.546;2023-02-23T05:38:35;24.90;;;14.60;;
17985;SDS011;9118;48.122;11.546;2023-02-23T05:41:05;26.93;;;14.87;;
17985;SDS011;9118;48.122;11.546;2023-02-23T05:43:34;24.87;;;14.20;;
17985;SDS011;9118;48.122;11.546;2023-02-23T05:46:04;27.67;;;17.23;;
17985;SDS011;9118;48.122;11.546;2023-02-23T05:48:31;28.90;;;15.30;;
17985;SDS011;9118;48.122;11.546;2023-02-23T05:51:00;23.23;;;14.60;;
17985;SDS011;9118;48.122;11.546;2023-02-23T05:53:27;22.73;;;15.00;;
17985;SDS011;9118;48.122;11.546;2023-02-23T05:55:54;28.13;;;16.20;;
17985;SDS011;9118;48.122;11.546;2023-02-23T05:58:21;24.73;;;15.60;;
17985;SDS011;9118;48.122;11.546;2023-02-23T06:00:50;23.83;;;15.40;;
17985;SDS011;9118;48.122;11.546;2023-02-23T06:03:17;27.40;;;15.93;;
17985;SDS011;9118;48.122;11.546;2023-02-23T06:05:48;25.83;;;15.13;;
17985;SDS011;9118;48.122;11.546;2023-02-23T06:08:16;28.40;;;14.40;;
17985;SDS011;9118;48.122;11.546;2023-02-23T06:10:43;24.87;;;14.70;;
17985;SDS011;9118;48.122;11.546;2023-02-23T06:13:10;25.13;;;15.00;;
17985;SDS011;9118;48.122;11.546;2023-02-23T06:15:37;29.13;;;15.33;;
17985;SDS011;9118;48.122;11.546;2023-02-23T06:18:06;28.50;;;14.20;;
17985;SDS011;9118;48.122;11.546;2023-02-23T06:20:34;25.93;;;15.27;;
17985;SDS011;9118;48.122;11.546;2023-02-23T06:23:02;28.13;;;15.63;;
17985;SDS011;9118;48.122;11.546;2023-02-23T06:25:29;26.87;;;14.87;;
17985;SDS011;9118;48.122;11.546;2023-02-23T06:27:56;24.60;;;15.50;;
17985;SDS011;9118;48.122;11.546;2023-02-23T06:30:23;30.50;;;15.40;;
17985;SDS011;9118;48.122;11.546;2023-02-23T06:32:50;28.27;;;15.63;;
17985;SDS011;9118;48.122;11.546;2023-02-23T06:35:19;23.93;;;13.77;;
17985;SDS011;9118;48.122;11.546;2023-02-23T06:37:48;32.70;;;15.43;;
17985;SDS011;9118;48.122;11.546;2023-02-23T06:40:16;25.63;;;14.03;;
17985;SDS011;9118;48.122;11.546;2023-02-23T06:42:43;23.10;;;14.63;;
17985;SDS011;9118;48.122;11.546;2023-02-23T06:45:10;31.90;;;16.13;;
17985;SDS011;9118;48.122;11.546;2023-02-23T06:47:38;26.07;;;16.50;;
17985;SDS011;9118;48.122;11.546;2023-02-23T06:50:06;30.70;;;14.60;;
17985;SDS011;9118;48.122;11.546;2023-02-23T06:52:35;28.10;;;14.70;;
17985;SDS011;9118;48.122;11.546;2023-02-23T06:55:05;32.30;;;14.90;;
17985;SDS011;9118;48.122;11.546;2023-02-23T06:57:37;29.97;;;15.17;;
17985;SDS011;9118;48.122;11.546;2023-02-23T07:00:06;28.10;;;15.17;;
17985;SDS011;9118;48.122;11.546;2023-02-23T07:02:35;27.70;;;14.60;;
17985;SDS011;9118;48.122;11.546;2023-02-23T07:05:02;24.53;;;14.87;;
17985;SDS011;9118;48.122;11.546;2023-02-23T07:07:30;29.23;;;16.03;;
17985;SDS011;9118;48.122;11.546;2023-02-23T07:09:59;34.30;;;15.43;;
17985;SDS011;9118;48.122;11.546;2023-02-23T07:12:26;23.17;;;14.43;;
17985;SDS011;9118;48.122;11.546;2023-02-23T07:14:53;31.57;;;14.73;;
17985;SDS011;9118;48.122;11.546;2023-02-23T07:17:20;26.33;;;15.27;;
17985;SDS011;9118;48.122;11.546;2023-02-23T07:19:47;29.30;;;15.37;;
17985;SDS011;9118;48.122;11.546;2023-02-23T07:22:14;35.30;;;16.23;;
17985;SDS011;9118;48.122;11.546;2023-02-23T07:24:41;27.47;;;16.63;;
17985;SDS011;9118;48.122;11.546;2023-02-23T07:27:09;25.70;;;14.53;;
17985;SDS011;9118;48.122;11.546;2023-02-23T07:29:36;24.53;;;15.07;;
17985;SDS011;9118;48.122;11.546;2023-02-23T07:32:04;24.80;;;15.53;;
17985;SDS011;9118;48.122;11.546;2023-02-23T07:34:34;25.87;;;15.33;;
17985;SDS011;9118;48.122;11.546;2023-02-23T07:37:01;24.77;;;14.80;;
17985;SDS011;9118;48.122;11.546;2023-02-23T07:39:28;24.20;;;14.00;;
17985;SDS011;9118;48.122;11.546;2023-02-23T07:41:56;25.77;;;15.00;;
17985;SDS011;9118;48.122;11.546;2023-02-23T07:44:25;25.53;;;15.80;;
17985;SDS011;9118;48.122;11.546;2023-02-23T07:46:52;24.37;;;15.27;;
17985;SDS011;9118;48.122;11.546;2023-02-23T07:49:18;26.13;;;16.23;;
17985;SDS011;9118;48.122;11.546;2023-02-23T07:51:46;31.77;;;17.43;;
17985;SDS011;9118;48.122;11.546;2023-02-23T07:54:13;28.30;;;17.30;;
17985;SDS011;9118;48.122;11.546;2023-02-23T07:56:41;27.43;;;15.73;;
17985;SDS011;9118;48.122;11.546;2023-02-23T07:59:08;27.67;;;14.90;;
17985;SDS011;9118;48.122;11.546;2023-02-23T08:01:36;28.87;;;16.13;;
17985;SDS011;9118;48.122;11.546;2023-02-23T08:04:03;26.20;;;15.83;;
17985;SDS011;9118;48.122;11.546;2023-02-23T08:06:30;24.03;;;15.93;;
17985;SDS011;9118;48.122;11.546;2023-02-23T08:08:57;25.80;;;14.67;;
17985;SDS011;9118;48.122;11.546;2023-02-23T08:11:25;24.97;;;16.40;;
17985;SDS011;9118;48.122;11.546;2023-02-23T08:13:53;28.33;;;15.80;;
17985;SDS011;9118;48.122;11.546;2023-02-23T08:16:29;19.43;;;14.13;;
17985;SDS011;9118;48.122;11.546;2023-02-23T08:19:00;23.10;;;14.83;;
17985;SDS011;9118;48.122;11.546;2023-02-23T08:21:28;22.47;;;14.93;;
17985;SDS011;9118;48.122;11.546;2023-02-23T08:23:55;27.60;;;16.00;;
17985;SDS011;9118;48.122;11.546;2023-02-23T08:26:22;30.67;;;16.23;;
17985;SDS011;9118;48.122;11.546;2023-02-23T08:28:50;26.37;;;16.00;;
17985;SDS011;9118;48.122;11.546;2023-02-23T08:31:17;23.87;;;14.93;;
17985;SDS011;9118;48.122;11.546;2023-02-23T08:33:47;23.87;;;15.33;;
17985;SDS011;9118;48.122;11.546;2023-02-23T08:36:18;24.03;;;15.27;;
17985;SDS011;9118;48.122;11.546;2023-02-23T08:38:45;25.97;;;15.17;;
17985;SDS011;9118;48.122;11.546;2023-02-23T08:41:14;24.47;;;14.80;;
17985;SDS011;9118;48.122;11.546;2023-02-23T08:43:41;23.40;;;13.70;;
17985;SDS011;9118;48.122;11.546;2023-02-23T08:46:09;22.87;;;14.00;;
17985;SDS011;9118;48.122;11.546;2023-02-23T08:48:36;23.03;;;15.20;;
17985;SDS011;9118;48.122;11.546;2023-02-23T08:51:04;25.00;;;14.20;;
17985;SDS011;9118;48.122;11.546;2023-02-23T08:53:34;24.93;;;15.27;;
17985;SDS011;9118;48.122;11.546;2023-02-23T08:56:02;24.17;;;15.60;;
17985;SDS011;9118;48.122;11.546;2023-02-23T08:58:31;24.77;;;15.37;;
17985;SDS011;9118;48.122;11.546;2023-02-23T09:01:00;21.87;;;14.37;;
17985;SDS011;9118;48.122;11.546;2023-02-23T09:03:27;21.67;;;13.73;;
17985;SDS011;9118;48.122;11.546;2023-02-23T09:05:57;27.50;;;14.53;;
17985;SDS011;9118;48.122;11.546;2023-02-23T09:08:30;22.53;;;13.27;;
17985;SDS011;9118;48.122;11.546;2023-02-23T09:10:59;19.87;;;13.60;;
17985;SDS011;9118;48.122;11.546;2023-02-23T09:13:26;25.23;;;12.57;;
17985;SDS011;9118;48.122;11.546;2023-02-23T09:15:53;18.33;;;12.07;;
17985;SDS011;9118;48.122;11.546;2023-02-23T09:18:20;19.07;;;13.00;;
17985;SDS011;9118;48.122;11.546;2023-02-23T09:20:48;20.13;;;13.23;;
17985;SDS011;9118;48.122;11.546;2023-02-23T09:23:15;21.23;;;13.07;;
17985;SDS011;9118;48.122;11.546;2023-02-23T09:25:42;20.80;;;12.40;;
17985;SDS011;9118;48.122;11.546;2023-02-23T09:28:12;19.10;;;12.47;;
17985;SDS011;9118;48.122;11.546;2023-02-23T09:30:43;17.70;;;12.37;;
17985;SDS011;9118;48.122;11.546;2023-02-23T09:33:12;18.50;;;11.70;;
17985;SDS011;9118;48.122;11.546;2023-02-23T09:35:44;17.87;;;12.17;;
17985;SDS011;9118;48.122;11.546;2023-02-23T09:38:11;19.10;;;12.43;;
17985;SDS011;9118;48.122;11.546;2023-02-23T09:40:43;20.77;;;12.63;;
17985;SDS011;9118;48.122;11.546;2023-02-23T09:43:16;18.43;;;11.73;;
17985;SDS011;9118;48.122;11.546;2023-02-23T09:45:48;16.13;;;10.70;;
17985;SDS011;9118;48.122;11.546;2023-02-23T09:48:20;18.43;;;11.93;;
17985;SDS011;9118;48.122;11.546;2023-02-23T09:50:50;22.53;;;11.90;;
17985;SDS011;9118;48.122;11.546;2023-02-23T09:53:23;14.80;;;10.80;;
17985;SDS011;9118;48.122;11.546;2023-02-23T09:55:56;16.47;;;10.87;;
17985;SDS011;9118;48.122;11.546;2023-02-23T09:58:29;20.00;;;12.00;;
17985;SDS011;9118;48.122;11.546;2023-02-23T10:01:03;16.00;;;10.07;;
17985;SDS011;9118;48.122;11.546;2023-02-23T10:04:03;16.97;;;10.57;;
17985;SDS011;9118;48.122;11.546;2023-02-23T10:06:35;17.33;;;11.00;;
17985;SDS011;9118;48.122;11.546;2023-02-23T10:09:07;16.23;;;10.80;;
17985;SDS011;9118;48.122;11.546;2023-02-23T10:11:44;15.37;;;11.13;;
17985;SDS011;9118;48.122;11.546;2023-02-23T10:14:25;16.80;;;10.60;;
17985;SDS011;9118;48.122;11.546;2023-02-23T10:17:10;17.00;;;10.37;;
17985;SDS011;9118;48.122;11.546;2023-02-23T10:19:46;15.23;;;10.37;;
17985;SDS011;9118;48.122;11.546;2023-02-23T10:22:21;17.67;;;10.47;;
17985;SDS011;9118;48.122;11.546;2023-02-23T10:24:51;16.73;;;10.90;;
17985;SDS011;9118;48.122;11.546;2023-02-23T10:27:21;14.50;;;10.67;;
17985;SDS011;9118;48.122;11.546;2023-02-23T10:29:56;19.90;;;10.47;;
17985;SDS011;9118;48.122;11.546;2023-02-23T10:32:28;18.53;;;11.50;;
17985;SDS011;9118;48.122;11.546;2023-02-23T10:35:07;16.23;;;10.47;;
17985;SDS011;9118;48.122;11.546;2023-02-23T10:37:37;12.37;;;9.33;;
17985;SDS011;9118;48.122;11.546;2023-02-23T10:40:05;12.30;;;9.30;;
17985;SDS011;9118;48.122;11.546;2023-02-23T10:42:39;16.20;;;9.03;;
17985;SDS011;9118;48.122;11.546;2023-02-23T10:45:12;15.90;;;8.90;;
17985;SDS011;9118;48.122;11.546;2023-02-23T10:47:42;11.73;;;7.40;;
17985;SDS011;9118;48.122;11.546;2023-02-23T10:50:10;10.30;;;6.70;;
17985;SDS011;9118;48.122;11.546;2023-02-23T10:52:40;14.23;;;8.03;;
17985;SDS011;9118;48.122;11.546;2023-02-23T10:55:19;13.93;;;7.83;;
17985;SDS011;9118;48.122;11.546;2023-02-23T10:57:49;13.97;;;8.57;;
17985;SDS011;9118;48.122;11.546;2023-02-23T11:00:28;14.93;;;9.13;;
17985;SDS011;9118;48.122;11.546;2023-02-23T11:02:57;18.97;;;9.47;;
17985;SDS011;9118;48.122;11.546;2023-02-23T11:05:32;12.00;;;8.80;;
17985;SDS011;9118;48.122;11.546;2023-02-23T11:08:12;16.87;;;9.00;;
17985;SDS011;9118;48.122;11.546;2023-02-23T11:10:53;16.90;;;9.50;;
17985;SDS011;9118;48.122;11.546;2023-02-23T11:13:33;13.93;;;7.63;;
17985;SDS011;9118;48.122;11.546;2023-02-23T11:16:04;11.23;;;8.00;;
17985;SDS011;9118;48.122;11.546;2023-02-23T11:18:35;9.10;;;6.60;;
17985;SDS011;9118;48.122;11.546;2023-02-23T11:21:07;9.93;;;6.17;;
17985;SDS011;9118;48.122;11.546;2023-02-23T11:23:36;11.30;;;6.37;;
17985;SDS011;9118;48.122;11.546;2023-02-23T11:26:05;9.43;;;6.70;;
17985;SDS011;9118;48.122;11.546;2023-02-23T11:28:55;9.47;;;6.80;;
17985;SDS011;9118;48.122;11.546;2023-02-23T11:31:28;10.40;;;6.77;;
17985;SDS011;9118;48.122;11.546;2023-02-23T11:33:58;9.97;;;6.93;;
17985;SDS011;9118;48.122;11.546;2023-02-23T11:36:28;10.63;;;7.73;;
17985;SDS011;9118;48.122;11.546;2023-02-23T11:39:00;11.63;;;7.50;;
17985;SDS011;9118;48.122;11.546;2023-02-23T11:41:42;9.37;;;7.37;;
17985;SDS011;9118;48.122;11.546;2023-02-23T11:44:17;8.47;;;6.20;;
17985;SDS011;9118;48.122;11.546;2023-02-23T11:46:47;13.67;;;8.10;;
17985;SDS011;9118;48.122;11.546;2023-02-23T11:49:17;11.70;;;7.90;;
17985;SDS011;9118;48.122;11.546;2023-02-23T11:51:49;10.53;;;7.50;;
17985;SDS011;9118;48.122;11.546;2023-02-23T11:54:20;12.73;;;7.90;;
17985;SDS011;9118;48.122;11.546;2023-02-23T11:56:51;12.40;;;8.47;;
17985;SDS011;9118;48.122;11.546;2023-02-23T11:59:20;10.60;;;7.33;;
17985;SDS011;9118;48.122;11.546;2023-02-23T12:01:58;12.83;;;8.33;;
17985;SDS011;9118;48.122;11.546;2023-02-23T12:04:32;14.97;;;9.10;;
17985;SDS011;9118;48.122;11.546;2023-02-23T12:10:04;16.50;;;9.20;;
17985;SDS011;9118;48.122;11.546;2023-02-23T12:12:40;13.60;;;8.97;;
17985;SDS011;9118;48.122;11.546;2023-02-23T12:15:14;16.10;;;9.37;;
17985;SDS011;9118;48.122;11.546;2023-02-23T12:17:49;12.60;;;8.97;;
17985;SDS011;9118;48.122;11.546;2023-02-23T12:20:21;15.03;;;9.50;;
17985;SDS011;9118;48.122;11.546;2023-02-23T12:22:51;15.07;;;9.80;;
17985;SDS011;9118;48.122;11.546;2023-02-23T12:25:24;13.60;;;8.63;;
17985;SDS011;9118;48.122;11.546;2023-02-23T12:27:58;14.87;;;8.17;;
17985;SDS011;9118;48.122;11.546;2023-02-23T12:30:35;10.80;;;7.60;;
17985;SDS011;9118;48.122;11.546;2023-02-23T12:33:10;10.90;;;7.27;;
17985;SDS011;9118;48.122;11.546;2023-02-23T12:35:42;15.43;;;8.30;;
17985;SDS011;9118;48.122;11.546;2023-02-23T12:38:16;13.67;;;6.83;;
17985;SDS011;9118;48.122;11.546;2023-02-23T12:40:53;10.60;;;6.30;;
17985;SDS011;9118;48.122;11.546;2023-02-23T12:43:26;9.27;;;6.50;;
17985;SDS011;9118;48.122;11.546;2023-02-23T12:45:58;7.97;;;6.20;;
17985;SDS011;9118;48.122;11.546;2023-02-23T12:48:36;13.07;;;7.17;;
17985;SDS011;9118;48.122;11.546;2023-02-23T12:54:02;9.57;;;6.87;;
17985;SDS011;9118;48.122;11.546;2023-02-23T12:56:35;9.70;;;6.90;;
17985;SDS011;9118;48.122;11.546;2023-02-23T12:59:13;9.87;;;6.80;;
17985;SDS011;9118;48.122;11.546;2023-02-23T13:01:51;9.33;;;6.40;;
17985;SDS011;9118;48.122;11.546;2023-02-23T13:04:31;11.20;;;6.80;;
17985;SDS011;9118;48.122;11.546;2023-02-23T13:07:23;11.17;;;6.63;;
17985;SDS011;9118;48.122;11.546;2023-02-23T13:10:01;7.83;;;6.30;;
17985;SDS011;9118;48.122;11.546;2023-02-23T13:12:43;10.93;;;5.80;;
17985;SDS011;9118;48.122;11.546;2023-02-23T13:15:21;8.00;;;5.67;;
17985;SDS011;9118;48.122;11.546;2023-02-23T13:17:56;8.33;;;5.50;;
17985;SDS011;9118;48.122;11.546;2023-02-23T13:20:33;9.90;;;5.70;;
17985;SDS011;9118;48.122;11.546;2023-02-23T13:23:07;7.43;;;5.70;;
17985;SDS011;9118;48.122;11.546;2023-02-23T13:25:41;6.73;;;5.53;;
17985;SDS011;9118;48.122;11.546;2023-02-23T13:28:15;8.60;;;5.87;;
17985;SDS011;9118;48.122;11.546;2023-02-23T13:30:45;9.27;;;5.73;;
17985;SDS011;9118;48.122;11.546;2023-02-23T13:33:14;7.20;;;5.60;;
17985;SDS011;9118;48.122;11.546;2023-02-23T13:35:50;7.43;;;5.03;;
17985;SDS011;9118;48.122;11.546;2023-02-23T13:38:18;8.17;;;5.30;;
17985;SDS011;9118;48.122;11.546;2023-02-23T13:40:56;8.60;;;5.53;;
17985;SDS011;9118;48.122;11.546;2023-02-23T13:43:31;7.77;;;5.33;;
17985;SDS011;9118;48.122;11.546;2023-02-23T13:46:08;11.53;;;4.67;;
17985;SDS011;9118;48.122;11.546;2023-02-23T13:48:45;5.30;;;4.23;;
17985;SDS011;9118;48.122;11.546;2023-02-23T13:51:22;8.63;;;4.67;;
17985;SDS011;9118;48.122;11.546;2023-02-23T13:53:59;5.10;;;3.90;;
17985;SDS011;9118;48.122;11.546;2023-02-23T13:56:31;10.97;;;4.60;;
17985;SDS011;9118;48.122;11.546;2023-02-23T13:59:06;6.53;;;5.20;;
17985;SDS011;9118;48.122;11.546;2023-02-23T14:01:42;5.57;;;4.30;;
17985;SDS011;9118;48.122;11.546;2023-02-23T14:04:12;6.20;;;3.80;;
17985;SDS011;9118;48.122;11.546;2023-02-23T14:06:49;4.57;;;3.67;;
17985;SDS011;9118;48.122;11.546;2023-02-23T14:09:21;4.63;;;3.40;;
17985;SDS011;9118;48.122;11.546;2023-02-23T14:11:55;4.93;;;3.83;;
17985;SDS011;9118;48.122;11.546;2023-02-23T14:14:37;5.83;;;3.80;;
17985;SDS011;9118;48.122;11.546;2023-02-23T14:20:11;5.50;;;3.40;;
17985;SDS011;9118;48.122;11.546;2023-02-23T14:23:11;4.30;;;2.90;;
17985;SDS011;9118;48.122;11.546;2023-02-23T14:25:46;4.03;;;3.17;;
17985;SDS011;9118;48.122;11.546;2023-02-23T14:28:22;4.10;;;3.20;;
17985;SDS011;9118;48.122;11.546;2023-02-23T14:30:58;4.03;;;3.17;;
17985;SDS011;9118;48.122;11.546;2023-02-23T14:33:36;4.47;;;3.63;;
17985;SDS011;9118;48.122;11.546;2023-02-23T14:36:34;5.90;;;3.37;;
17985;SDS011;9118;48.122;11.546;2023-02-23T14:39:08;4.33;;;3.50;;
17985;SDS011;9118;48.122;11.546;2023-02-23T14:41:43;3.93;;;3.10;;
17985;SDS011;9118;48.122;11.546;2023-02-23T14:44:15;6.40;;;3.50;;
17985;SDS011;9118;48.122;11.546;2023-02-23T14:46:48;4.20;;;3.40;;
17985;SDS011;9118;48.122;11.546;2023-02-23T14:49:21;4.63;;;3.17;;
17985;SDS011;9118;48.122;11.546;2023-02-23T14:51:52;4.57;;;3.30;;
17985;SDS011;9118;48.122;11.546;2023-02-23T14:54:26;7.17;;;3.47;;
17985;SDS011;9118;48.122;11.546;2023-02-23T14:56:57;6.13;;;3.63;;
17985;SDS011;9118;48.122;11.546;2023-02-23T14:59:27;8.73;;;3.87;;
17985;SDS011;9118;48.122;11.546;2023-02-23T15:02:01;8.00;;;4.33;;
17985;SDS011;9118;48.122;11.546;2023-02-23T15:04:33;6.40;;;3.80;;
17985;SDS011;9118;48.122;11.546;2023-02-23T15:07:03;4.30;;;3.53;;
17985;SDS011;9118;48.122;11.546;2023-02-23T15:09:34;7.67;;;4.07;;
17985;SDS011;9118;48.122;11.546;2023-02-23T15:12:10;6.20;;;4.10;;
17985;SDS011;9118;48.122;11.546;2023-02-23T15:14:40;6.60;;;3.97;;
17985;SDS011;9118;48.122;11.546;2023-02-23T15:17:12;5.60;;;4.23;;
17985;SDS011;9118;48.122;11.546;2023-02-23T15:19:43;7.43;;;4.47;;